Aviation Digital Data Service (ADDS)

Output produced by METARs form (1331 UTC 06 July 2015)
found at http://aviationweather.gov/adds/metars/
 
KIAD 061140Z 0612/0718 12005KT P6SM SCT008 OVC015 
     TEMPO 0612/0614 5SM -SHRA 
     FM061600 16007KT P6SM BKN040 
     FM062000 15010KT 3SM -TSRA BKN050CB 
     FM062300 13006KT 6SM -SHRA VCTS BKN050CB 
     FM070300 VRB05KT P6SM SCT050 BKN090